DCM141 KTEB-KEYW
Flight info
| Callsign | DCM141 |
|---|---|
| Flight time | N/A |
| Altitude | 40000 |
| Route | ELVAE COL WHITE Q409 CRPLR PAACK Q97 YEASO/N0443F430 Q97 DEBRL/N0444F410 Q97 EBAYY FNTSY1 |
| Aircraft | FA50/M-SDFGHIM1RWXY/H |
Departure
| Time | 2026-05-08 23:27 |
|---|---|
| Airport | Teterboro Airport (KTEB) |
Arrival
| Time | N/A |
|---|---|
| Airport | Key West International Airport (KEYW) |
| Time | Latitude | Longitude | Altitude | Speed | Heading |
|---|---|---|---|---|---|
| 2026-05-08 23:15 | 40.85402 | -74.05533 | 11 ft | 0 kts | 28° |
| 2026-05-08 23:21 | 40.85403 | -74.05532 | 11 ft | 1 kts | 28° |
| 2026-05-08 23:21 | 40.85426 | -74.05533 | 11 ft | 5 kts | 295° |
| 2026-05-08 23:22 | 40.85433 | -74.05592 | 10 ft | 7 kts | 278° |
| 2026-05-08 23:22 | 40.85444 | -74.05642 | 11 ft | 5 kts | 292° |
| 2026-05-08 23:22 | 40.85419 | -74.05714 | 11 ft | 14 kts | 228° |
| 2026-05-08 23:22 | 40.85336 | -74.05838 | 8 ft | 22 kts | 229° |
| 2026-05-08 23:23 | 40.85223 | -74.06006 | 9 ft | 24 kts | 228° |
| 2026-05-08 23:23 | 40.85106 | -74.06091 | 9 ft | 18 kts | 184° |
| 2026-05-08 23:23 | 40.84977 | -74.06100 | 8 ft | 19 kts | 183° |
| 2026-05-08 23:23 | 40.84848 | -74.06110 | 9 ft | 20 kts | 184° |
| 2026-05-08 23:24 | 40.84696 | -74.06123 | 8 ft | 24 kts | 182° |
| 2026-05-08 23:24 | 40.84516 | -74.06135 | 8 ft | 29 kts | 183° |
| 2026-05-08 23:24 | 40.84309 | -74.06150 | 8 ft | 29 kts | 182° |
| 2026-05-08 23:24 | 40.84108 | -74.06164 | 7 ft | 29 kts | 184° |
| 2026-05-08 23:25 | 40.83921 | -74.06178 | 9 ft | 19 kts | 182° |
| 2026-05-08 23:25 | 40.83884 | -74.06150 | 9 ft | 0 kts | 100° |
| 2026-05-08 23:25 | 40.83882 | -74.06118 | 8 ft | 8 kts | 92° |
| 2026-05-08 23:26 | 40.83891 | -74.06036 | 5 ft | 10 kts | 21° |
| 2026-05-08 23:26 | 40.83909 | -74.06034 | 5 ft | 0 kts | 2° |
| 2026-05-08 23:26 | 40.84070 | -74.06023 | 10 ft | 55 kts | 3° |
| 2026-05-08 23:27 | 40.84669 | -74.05980 | 8 ft | 114 kts | 2° |
| 2026-05-08 23:27 | 40.85527 | -74.05929 | 325 ft | 131 kts | 2° |
| 2026-05-08 23:27 | 40.86488 | -74.05849 | 824 ft | 148 kts | 3° |
| 2026-05-08 23:27 | 40.87563 | -74.05752 | 1407 ft | 162 kts | 0° |
| 2026-05-08 23:28 | 40.88730 | -74.05623 | 1857 ft | 171 kts | 2° |
| 2026-05-08 23:28 | 40.89965 | -74.05481 | 1932 ft | 185 kts | 1° |
| 2026-05-08 23:28 | 40.91291 | -74.05325 | 1913 ft | 197 kts | 0° |
| 2026-05-08 23:28 | 40.92676 | -74.05386 | 1942 ft | 210 kts | 348° |
| 2026-05-08 23:29 | 40.94018 | -74.06297 | 1961 ft | 235 kts | 313° |
| 2026-05-08 23:29 | 40.94761 | -74.08302 | 2227 ft | 253 kts | 277° |
| 2026-05-08 23:29 | 40.94772 | -74.10561 | 3299 ft | 244 kts | 267° |
| 2026-05-08 23:29 | 40.94674 | -74.12814 | 4075 ft | 247 kts | 267° |
| 2026-05-08 23:30 | 40.94592 | -74.15044 | 4932 ft | 249 kts | 267° |
| 2026-05-08 23:30 | 40.94502 | -74.17425 | 5010 ft | 256 kts | 264° |
| 2026-05-08 23:30 | 40.93904 | -74.19502 | 5062 ft | 234 kts | 233° |
| 2026-05-08 23:30 | 40.92637 | -74.20900 | 4586 ft | 253 kts | 212° |
| 2026-05-08 23:31 | 40.91025 | -74.21634 | 5163 ft | 237 kts | 198° |
| 2026-05-08 23:31 | 40.89421 | -74.21972 | 5875 ft | 234 kts | 191° |
| 2026-05-08 23:31 | 40.87695 | -74.22195 | 6006 ft | 266 kts | 191° |
| 2026-05-08 23:31 | 40.85798 | -74.22486 | 6011 ft | 271 kts | 192° |
| 2026-05-08 23:32 | 40.83962 | -74.22792 | 6011 ft | 263 kts | 192° |
| 2026-05-08 23:32 | 40.82146 | -74.23101 | 6011 ft | 263 kts | 192° |
| 2026-05-08 23:32 | 40.80332 | -74.23403 | 6008 ft | 264 kts | 192° |
| 2026-05-08 23:32 | 40.78510 | -74.23700 | 6009 ft | 263 kts | 192° |
| 2026-05-08 23:33 | 40.76691 | -74.24001 | 5999 ft | 264 kts | 192° |
| 2026-05-08 23:33 | 40.74870 | -74.24303 | 5997 ft | 263 kts | 192° |
| 2026-05-08 23:33 | 40.73052 | -74.24602 | 5998 ft | 263 kts | 192° |
| 2026-05-08 23:33 | 40.71236 | -74.24902 | 5998 ft | 263 kts | 192° |
| 2026-05-08 23:34 | 40.69419 | -74.25201 | 6001 ft | 263 kts | 192° |
| 2026-05-08 23:34 | 40.67605 | -74.25498 | 5992 ft | 264 kts | 193° |
| 2026-05-08 23:34 | 40.65776 | -74.25802 | 5993 ft | 266 kts | 193° |
| 2026-05-08 23:34 | 40.63942 | -74.26105 | 5993 ft | 266 kts | 193° |
| 2026-05-08 23:35 | 40.62107 | -74.26406 | 5996 ft | 266 kts | 193° |
| 2026-05-08 23:35 | 40.60276 | -74.26706 | 5995 ft | 265 kts | 193° |
| 2026-05-08 23:35 | 40.58453 | -74.27006 | 5995 ft | 264 kts | 193° |
| 2026-05-08 23:35 | 40.56622 | -74.27307 | 5994 ft | 265 kts | 193° |
| 2026-05-08 23:36 | 40.54771 | -74.27457 | 5980 ft | 271 kts | 180° |
| 2026-05-08 23:36 | 40.52912 | -74.26884 | 5976 ft | 278 kts | 167° |
| 2026-05-08 23:36 | 40.51108 | -74.25949 | 5969 ft | 280 kts | 162° |
| 2026-05-08 23:36 | 40.49313 | -74.24961 | 5978 ft | 279 kts | 164° |
| 2026-05-08 23:37 | 40.47502 | -74.24065 | 5962 ft | 278 kts | 166° |
| 2026-05-08 23:37 | 40.45706 | -74.23206 | 5964 ft | 279 kts | 165° |
| 2026-05-08 23:37 | 40.43886 | -74.22304 | 5961 ft | 280 kts | 165° |
| 2026-05-08 23:37 | 40.42044 | -74.21379 | 5965 ft | 280 kts | 165° |
| 2026-05-08 23:38 | 40.40250 | -74.20488 | 5970 ft | 279 kts | 165° |
| 2026-05-08 23:38 | 40.38436 | -74.19594 | 5972 ft | 279 kts | 165° |
| 2026-05-08 23:38 | 40.36621 | -74.18697 | 6006 ft | 278 kts | 165° |
| 2026-05-08 23:38 | 40.34829 | -74.17805 | 6274 ft | 271 kts | 165° |
| 2026-05-08 23:39 | 40.33053 | -74.16929 | 6770 ft | 277 kts | 166° |
| 2026-05-08 23:39 | 40.31209 | -74.16044 | 7269 ft | 285 kts | 170° |
| 2026-05-08 23:39 | 40.29281 | -74.15988 | 7784 ft | 277 kts | 200° |
| 2026-05-08 23:39 | 40.27461 | -74.16838 | 8299 ft | 280 kts | 207° |
| 2026-05-08 23:40 | 40.25627 | -74.17697 | 8908 ft | 278 kts | 202° |
| 2026-05-08 23:40 | 40.23792 | -74.18247 | 10073 ft | 269 kts | 198° |
| 2026-05-08 23:40 | 40.21888 | -74.18760 | 10293 ft | 291 kts | 199° |
| 2026-05-08 23:40 | 40.19907 | -74.19352 | 10964 ft | 292 kts | 200° |
| 2026-05-08 23:41 | 40.17906 | -74.19967 | 11581 ft | 299 kts | 201° |
| 2026-05-08 23:41 | 40.15856 | -74.20588 | 12174 ft | 305 kts | 201° |
| 2026-05-08 23:41 | 40.13767 | -74.21209 | 12801 ft | 311 kts | 201° |
| 2026-05-08 23:41 | 40.11640 | -74.21847 | 13389 ft | 317 kts | 202° |
| 2026-05-08 23:42 | 40.09471 | -74.22500 | 13971 ft | 322 kts | 202° |
| 2026-05-08 23:42 | 40.07280 | -74.23153 | 14587 ft | 324 kts | 202° |
| 2026-05-08 23:42 | 40.05078 | -74.23809 | 15216 ft | 326 kts | 202° |
| 2026-05-08 23:42 | 40.02873 | -74.24472 | 15752 ft | 330 kts | 202° |
| 2026-05-08 23:43 | 40.00691 | -74.25353 | 16355 ft | 320 kts | 215° |
| 2026-05-08 23:43 | 39.98807 | -74.26806 | 16969 ft | 313 kts | 223° |
| 2026-05-08 23:43 | 39.97062 | -74.28497 | 17571 ft | 311 kts | 227° |
| 2026-05-08 23:43 | 39.95353 | -74.30241 | 18182 ft | 314 kts | 226° |
| 2026-05-08 23:44 | 39.93582 | -74.31930 | 18686 ft | 318 kts | 225° |
| 2026-05-08 23:44 | 39.91775 | -74.33607 | 19193 ft | 319 kts | 225° |
| 2026-05-08 23:44 | 39.89981 | -74.35310 | 19701 ft | 320 kts | 226° |
| 2026-05-08 23:44 | 39.88184 | -74.37037 | 20196 ft | 322 kts | 226° |
| 2026-05-08 23:45 | 39.86367 | -74.38768 | 20692 ft | 324 kts | 226° |
| 2026-05-08 23:45 | 39.84538 | -74.40500 | 21144 ft | 326 kts | 226° |
| 2026-05-08 23:45 | 39.82730 | -74.42213 | 21674 ft | 326 kts | 227° |
| 2026-05-08 23:45 | 39.80946 | -74.44049 | 21941 ft | 330 kts | 232° |
| 2026-05-08 23:46 | 39.79321 | -74.46204 | 21942 ft | 338 kts | 237° |
| 2026-05-08 23:46 | 39.77732 | -74.48547 | 21949 ft | 353 kts | 236° |
| 2026-05-08 23:46 | 39.75993 | -74.50893 | 21950 ft | 366 kts | 233° |
| 2026-05-08 23:46 | 39.74159 | -74.53203 | 21950 ft | 368 kts | 233° |
| 2026-05-08 23:47 | 39.72352 | -74.55559 | 21959 ft | 368 kts | 234° |
| 2026-05-08 23:47 | 39.70572 | -74.57974 | 21965 ft | 374 kts | 234° |
| 2026-05-08 23:47 | 39.68738 | -74.60435 | 21969 ft | 385 kts | 234° |
| 2026-05-08 23:47 | 39.66847 | -74.62898 | 22599 ft | 372 kts | 233° |
| 2026-05-08 23:48 | 39.65098 | -74.65144 | 24302 ft | 335 kts | 235° |
| 2026-05-08 23:48 | 39.63539 | -74.67201 | 25510 ft | 314 kts | 237° |
| 2026-05-08 23:48 | 39.62009 | -74.69289 | 25582 ft | 325 kts | 237° |
| 2026-05-08 23:48 | 39.60423 | -74.71403 | 25942 ft | 327 kts | 236° |
| 2026-05-08 23:49 | 39.58815 | -74.73486 | 26384 ft | 327 kts | 236° |
| 2026-05-08 23:49 | 39.57212 | -74.75586 | 26749 ft | 328 kts | 236° |
| 2026-05-08 23:49 | 39.55615 | -74.77698 | 27133 ft | 328 kts | 236° |
| 2026-05-08 23:49 | 39.54011 | -74.79812 | 27515 ft | 329 kts | 236° |
| 2026-05-08 23:50 | 39.52400 | -74.81924 | 27882 ft | 331 kts | 236° |
| 2026-05-08 23:50 | 39.50783 | -74.84045 | 28250 ft | 331 kts | 236° |
| 2026-05-08 23:50 | 39.49161 | -74.86173 | 28618 ft | 332 kts | 236° |
| 2026-05-08 23:50 | 39.48083 | -74.87586 | 28823 ft | 333 kts | 237° |
| 2026-05-08 23:51 | 39.46454 | -74.89721 | 29179 ft | 334 kts | 236° |
| 2026-05-08 23:51 | 39.44822 | -74.91857 | 29526 ft | 335 kts | 236° |
| 2026-05-08 23:51 | 39.42648 | -74.94701 | 29971 ft | 336 kts | 236° |
| 2026-05-08 23:51 | 39.41000 | -74.96855 | 30271 ft | 337 kts | 236° |
| 2026-05-08 23:52 | 39.39884 | -74.98312 | 30424 ft | 338 kts | 236° |
| 2026-05-08 23:52 | 39.38248 | -75.00448 | 30588 ft | 339 kts | 236° |
| 2026-05-08 23:52 | 39.36586 | -75.02616 | 30796 ft | 340 kts | 236° |
| 2026-05-08 23:52 | 39.34920 | -75.04786 | 30992 ft | 341 kts | 236° |
| 2026-05-08 23:53 | 39.33227 | -75.06992 | 31207 ft | 341 kts | 236° |
| 2026-05-08 23:53 | 39.31576 | -75.09142 | 31420 ft | 342 kts | 236° |
| 2026-05-08 23:53 | 39.29895 | -75.11313 | 31602 ft | 343 kts | 236° |